sensor_id;sensor_type;location;lat;lon;timestamp;P1;durP1;ratioP1;P2;durP2;ratioP2
71558;SDS011;59382;43.852;25.952;2022-11-20T00:00:54;24.13;;;15.50;;
71558;SDS011;59382;43.852;25.952;2022-11-20T00:03:20;29.70;;;17.52;;
71558;SDS011;59382;43.852;25.952;2022-11-20T00:05:47;27.42;;;17.60;;
71558;SDS011;59382;43.852;25.952;2022-11-20T00:08:13;26.10;;;16.67;;
71558;SDS011;59382;43.852;25.952;2022-11-20T00:10:39;33.53;;;18.35;;
71558;SDS011;59382;43.852;25.952;2022-11-20T00:13:05;30.83;;;18.80;;
71558;SDS011;59382;43.852;25.952;2022-11-20T00:15:32;27.42;;;19.00;;
71558;SDS011;59382;43.852;25.952;2022-11-20T00:17:57;30.95;;;20.33;;
71558;SDS011;59382;43.852;25.952;2022-11-20T00:20:23;30.17;;;19.75;;
71558;SDS011;59382;43.852;25.952;2022-11-20T00:22:49;29.33;;;19.45;;
71558;SDS011;59382;43.852;25.952;2022-11-20T00:25:15;28.27;;;18.88;;
71558;SDS011;59382;43.852;25.952;2022-11-20T00:27:40;28.25;;;18.17;;
71558;SDS011;59382;43.852;25.952;2022-11-20T00:30:06;31.88;;;19.15;;
71558;SDS011;59382;43.852;25.952;2022-11-20T00:32:32;30.58;;;19.02;;
71558;SDS011;59382;43.852;25.952;2022-11-20T00:34:58;26.98;;;18.45;;
71558;SDS011;59382;43.852;25.952;2022-11-20T00:37:24;32.08;;;18.40;;
71558;SDS011;59382;43.852;25.952;2022-11-20T00:39:49;26.60;;;18.08;;
71558;SDS011;59382;43.852;25.952;2022-11-20T00:42:15;31.42;;;18.90;;
71558;SDS011;59382;43.852;25.952;2022-11-20T00:44:40;31.98;;;17.38;;
71558;SDS011;59382;43.852;25.952;2022-11-20T00:47:06;30.25;;;17.58;;
71558;SDS011;59382;43.852;25.952;2022-11-20T00:49:31;26.13;;;16.45;;
71558;SDS011;59382;43.852;25.952;2022-11-20T00:51:57;28.05;;;17.02;;
71558;SDS011;59382;43.852;25.952;2022-11-20T00:54:24;34.67;;;17.15;;
71558;SDS011;59382;43.852;25.952;2022-11-20T00:56:49;29.58;;;18.45;;
71558;SDS011;59382;43.852;25.952;2022-11-20T00:59:15;27.23;;;16.80;;
71558;SDS011;59382;43.852;25.952;2022-11-20T01:01:40;29.65;;;16.42;;
71558;SDS011;59382;43.852;25.952;2022-11-20T01:04:06;34.05;;;17.58;;
71558;SDS011;59382;43.852;25.952;2022-11-20T01:06:32;27.20;;;16.52;;
71558;SDS011;59382;43.852;25.952;2022-11-20T01:09:01;24.67;;;16.05;;
71558;SDS011;59382;43.852;25.952;2022-11-20T01:11:33;29.02;;;16.65;;
71558;SDS011;59382;43.852;25.952;2022-11-20T01:14:01;25.58;;;16.35;;
71558;SDS011;59382;43.852;25.952;2022-11-20T01:16:30;26.05;;;15.80;;
71558;SDS011;59382;43.852;25.952;2022-11-20T01:18:58;27.80;;;15.60;;
71558;SDS011;59382;43.852;25.952;2022-11-20T01:21:27;27.02;;;15.43;;
71558;SDS011;59382;43.852;25.952;2022-11-20T01:23:57;25.13;;;14.50;;
71558;SDS011;59382;43.852;25.952;2022-11-20T01:26:24;25.05;;;15.57;;
71558;SDS011;59382;43.852;25.952;2022-11-20T01:29:01;28.67;;;15.63;;
71558;SDS011;59382;43.852;25.952;2022-11-20T01:31:28;27.15;;;14.77;;
71558;SDS011;59382;43.852;25.952;2022-11-20T01:33:56;31.15;;;15.98;;
71558;SDS011;59382;43.852;25.952;2022-11-20T01:36:24;26.17;;;13.88;;
71558;SDS011;59382;43.852;25.952;2022-11-20T01:38:55;26.10;;;15.82;;
71558;SDS011;59382;43.852;25.952;2022-11-20T01:41:22;23.45;;;15.15;;
71558;SDS011;59382;43.852;25.952;2022-11-20T01:44:08;25.53;;;15.40;;
71558;SDS011;59382;43.852;25.952;2022-11-20T01:46:37;27.90;;;15.80;;
71558;SDS011;59382;43.852;25.952;2022-11-20T01:49:15;26.77;;;15.13;;
71558;SDS011;59382;43.852;25.952;2022-11-20T01:51:45;26.80;;;15.73;;
71558;SDS011;59382;43.852;25.952;2022-11-20T01:54:17;27.42;;;15.77;;
71558;SDS011;59382;43.852;25.952;2022-11-20T01:56:47;26.30;;;15.18;;
71558;SDS011;59382;43.852;25.952;2022-11-20T01:59:17;23.77;;;13.68;;
71558;SDS011;59382;43.852;25.952;2022-11-20T02:01:44;24.83;;;12.98;;
71558;SDS011;59382;43.852;25.952;2022-11-20T02:04:10;21.80;;;12.23;;
71558;SDS011;59382;43.852;25.952;2022-11-20T02:06:44;24.05;;;12.18;;
71558;SDS011;59382;43.852;25.952;2022-11-20T02:09:14;21.02;;;11.45;;
71558;SDS011;59382;43.852;25.952;2022-11-20T02:11:39;23.23;;;11.75;;
71558;SDS011;59382;43.852;25.952;2022-11-20T02:14:05;19.67;;;11.18;;
71558;SDS011;59382;43.852;25.952;2022-11-20T02:16:33;22.15;;;11.85;;
71558;SDS011;59382;43.852;25.952;2022-11-20T02:19:02;23.52;;;11.75;;
71558;SDS011;59382;43.852;25.952;2022-11-20T02:21:37;21.60;;;11.60;;
71558;SDS011;59382;43.852;25.952;2022-11-20T02:26:53;20.23;;;10.27;;
71558;SDS011;59382;43.852;25.952;2022-11-20T02:29:38;21.42;;;11.48;;
71558;SDS011;59382;43.852;25.952;2022-11-20T02:32:17;21.40;;;11.18;;
71558;SDS011;59382;43.852;25.952;2022-11-20T02:34:53;25.30;;;12.23;;
71558;SDS011;59382;43.852;25.952;2022-11-20T02:37:19;30.85;;;11.68;;
71558;SDS011;59382;43.852;25.952;2022-11-20T02:39:49;26.90;;;11.50;;
71558;SDS011;59382;43.852;25.952;2022-11-20T02:42:16;24.73;;;10.95;;
71558;SDS011;59382;43.852;25.952;2022-11-20T02:44:42;21.40;;;11.85;;
71558;SDS011;59382;43.852;25.952;2022-11-20T02:47:07;22.58;;;10.77;;
71558;SDS011;59382;43.852;25.952;2022-11-20T02:49:33;29.08;;;11.55;;
71558;SDS011;59382;43.852;25.952;2022-11-20T02:51:59;25.90;;;12.13;;
71558;SDS011;59382;43.852;25.952;2022-11-20T02:54:24;25.27;;;12.02;;
71558;SDS011;59382;43.852;25.952;2022-11-20T02:56:50;25.05;;;12.45;;
71558;SDS011;59382;43.852;25.952;2022-11-20T02:59:16;26.58;;;11.90;;
71558;SDS011;59382;43.852;25.952;2022-11-20T03:01:41;23.23;;;10.80;;
71558;SDS011;59382;43.852;25.952;2022-11-20T03:04:07;25.25;;;11.57;;
71558;SDS011;59382;43.852;25.952;2022-11-20T03:06:33;24.65;;;12.60;;
71558;SDS011;59382;43.852;25.952;2022-11-20T03:08:58;31.13;;;11.98;;
71558;SDS011;59382;43.852;25.952;2022-11-20T03:11:24;28.35;;;12.85;;
71558;SDS011;59382;43.852;25.952;2022-11-20T03:13:49;29.33;;;12.45;;
71558;SDS011;59382;43.852;25.952;2022-11-20T03:16:16;32.25;;;12.00;;
71558;SDS011;59382;43.852;25.952;2022-11-20T03:18:43;29.58;;;13.07;;
71558;SDS011;59382;43.852;25.952;2022-11-20T03:21:10;27.75;;;11.75;;
71558;SDS011;59382;43.852;25.952;2022-11-20T03:23:37;26.48;;;12.25;;
71558;SDS011;59382;43.852;25.952;2022-11-20T03:26:07;27.88;;;11.82;;
71558;SDS011;59382;43.852;25.952;2022-11-20T03:28:50;29.02;;;13.02;;
71558;SDS011;59382;43.852;25.952;2022-11-20T03:31:19;31.40;;;14.25;;
71558;SDS011;59382;43.852;25.952;2022-11-20T03:33:47;25.20;;;13.00;;
71558;SDS011;59382;43.852;25.952;2022-11-20T03:36:14;31.63;;;13.40;;
71558;SDS011;59382;43.852;25.952;2022-11-20T03:38:40;27.42;;;13.13;;
71558;SDS011;59382;43.852;25.952;2022-11-20T03:41:11;32.90;;;13.63;;
71558;SDS011;59382;43.852;25.952;2022-11-20T03:43:58;33.30;;;14.50;;
71558;SDS011;59382;43.852;25.952;2022-11-20T03:46:26;28.00;;;14.90;;
71558;SDS011;59382;43.852;25.952;2022-11-20T03:48:52;32.40;;;14.90;;
71558;SDS011;59382;43.852;25.952;2022-11-20T03:53:45;31.30;;;15.50;;
71558;SDS011;59382;43.852;25.952;2022-11-20T03:56:13;35.33;;;14.90;;
71558;SDS011;59382;43.852;25.952;2022-11-20T03:58:40;27.58;;;14.55;;
71558;SDS011;59382;43.852;25.952;2022-11-20T04:01:25;29.08;;;13.82;;
71558;SDS011;59382;43.852;25.952;2022-11-20T04:03:56;26.95;;;14.32;;
71558;SDS011;59382;43.852;25.952;2022-11-20T04:06:23;29.25;;;15.88;;
71558;SDS011;59382;43.852;25.952;2022-11-20T04:08:53;28.27;;;14.27;;
71558;SDS011;59382;43.852;25.952;2022-11-20T04:11:21;34.25;;;16.10;;
71558;SDS011;59382;43.852;25.952;2022-11-20T04:13:52;28.20;;;15.82;;
71558;SDS011;59382;43.852;25.952;2022-11-20T04:16:20;30.80;;;15.85;;
71558;SDS011;59382;43.852;25.952;2022-11-20T04:18:51;28.10;;;14.60;;
71558;SDS011;59382;43.852;25.952;2022-11-20T04:21:21;32.33;;;15.43;;
71558;SDS011;59382;43.852;25.952;2022-11-20T04:23:48;29.08;;;15.93;;
71558;SDS011;59382;43.852;25.952;2022-11-20T04:26:14;31.80;;;16.17;;
71558;SDS011;59382;43.852;25.952;2022-11-20T04:28:40;37.50;;;16.80;;
71558;SDS011;59382;43.852;25.952;2022-11-20T04:31:10;35.67;;;16.67;;
71558;SDS011;59382;43.852;25.952;2022-11-20T04:33:38;40.67;;;15.57;;
71558;SDS011;59382;43.852;25.952;2022-11-20T04:36:23;43.83;;;16.60;;
71558;SDS011;59382;43.852;25.952;2022-11-20T04:38:51;34.38;;;15.52;;
71558;SDS011;59382;43.852;25.952;2022-11-20T04:41:18;34.05;;;16.98;;
71558;SDS011;59382;43.852;25.952;2022-11-20T04:43:55;35.35;;;16.88;;
71558;SDS011;59382;43.852;25.952;2022-11-20T04:46:24;29.70;;;16.63;;
71558;SDS011;59382;43.852;25.952;2022-11-20T04:48:51;38.60;;;17.20;;
71558;SDS011;59382;43.852;25.952;2022-11-20T04:51:19;34.00;;;16.90;;
71558;SDS011;59382;43.852;25.952;2022-11-20T04:53:44;33.88;;;16.77;;
71558;SDS011;59382;43.852;25.952;2022-11-20T04:56:43;39.17;;;17.50;;
71558;SDS011;59382;43.852;25.952;2022-11-20T04:59:19;34.55;;;16.83;;
71558;SDS011;59382;43.852;25.952;2022-11-20T05:01:49;49.25;;;19.17;;
71558;SDS011;59382;43.852;25.952;2022-11-20T05:04:14;45.08;;;17.40;;
71558;SDS011;59382;43.852;25.952;2022-11-20T05:06:50;42.85;;;18.20;;
71558;SDS011;59382;43.852;25.952;2022-11-20T05:09:16;36.28;;;17.63;;
71558;SDS011;59382;43.852;25.952;2022-11-20T05:11:41;35.00;;;17.00;;
71558;SDS011;59382;43.852;25.952;2022-11-20T05:14:07;35.75;;;16.08;;
71558;SDS011;59382;43.852;25.952;2022-11-20T05:16:35;39.67;;;17.25;;
71558;SDS011;59382;43.852;25.952;2022-11-20T05:19:01;39.40;;;16.90;;
71558;SDS011;59382;43.852;25.952;2022-11-20T05:21:30;37.97;;;17.63;;
71558;SDS011;59382;43.852;25.952;2022-11-20T05:23:56;41.17;;;16.42;;
71558;SDS011;59382;43.852;25.952;2022-11-20T05:26:22;40.30;;;17.70;;
71558;SDS011;59382;43.852;25.952;2022-11-20T05:28:48;26.98;;;15.73;;
71558;SDS011;59382;43.852;25.952;2022-11-20T05:31:16;39.58;;;18.55;;
71558;SDS011;59382;43.852;25.952;2022-11-20T05:33:46;37.58;;;17.63;;
71558;SDS011;59382;43.852;25.952;2022-11-20T05:36:13;33.65;;;15.70;;
71558;SDS011;59382;43.852;25.952;2022-11-20T05:38:39;30.20;;;15.45;;
71558;SDS011;59382;43.852;25.952;2022-11-20T05:41:06;30.00;;;14.77;;
71558;SDS011;59382;43.852;25.952;2022-11-20T05:43:34;30.40;;;15.43;;
71558;SDS011;59382;43.852;25.952;2022-11-20T05:46:01;28.45;;;14.85;;
71558;SDS011;59382;43.852;25.952;2022-11-20T05:48:28;28.02;;;13.75;;
71558;SDS011;59382;43.852;25.952;2022-11-20T05:50:54;30.05;;;14.07;;
71558;SDS011;59382;43.852;25.952;2022-11-20T05:53:19;27.80;;;14.98;;
71558;SDS011;59382;43.852;25.952;2022-11-20T05:55:45;33.80;;;15.18;;
71558;SDS011;59382;43.852;25.952;2022-11-20T05:58:10;29.70;;;14.40;;
71558;SDS011;59382;43.852;25.952;2022-11-20T06:00:38;29.98;;;14.18;;
71558;SDS011;59382;43.852;25.952;2022-11-20T06:03:04;25.13;;;13.75;;
71558;SDS011;59382;43.852;25.952;2022-11-20T06:05:29;34.60;;;14.00;;
71558;SDS011;59382;43.852;25.952;2022-11-20T06:07:55;31.73;;;14.27;;
71558;SDS011;59382;43.852;25.952;2022-11-20T06:10:20;30.50;;;13.48;;
71558;SDS011;59382;43.852;25.952;2022-11-20T06:12:46;29.48;;;13.27;;
71558;SDS011;59382;43.852;25.952;2022-11-20T06:15:11;24.52;;;13.10;;
71558;SDS011;59382;43.852;25.952;2022-11-20T06:17:37;30.17;;;12.85;;
71558;SDS011;59382;43.852;25.952;2022-11-20T06:20:02;28.38;;;13.30;;
71558;SDS011;59382;43.852;25.952;2022-11-20T06:22:30;25.58;;;12.88;;
71558;SDS011;59382;43.852;25.952;2022-11-20T06:24:57;28.05;;;13.52;;
71558;SDS011;59382;43.852;25.952;2022-11-20T06:27:23;25.23;;;12.48;;
71558;SDS011;59382;43.852;25.952;2022-11-20T06:29:48;18.40;;;9.98;;
71558;SDS011;59382;43.852;25.952;2022-11-20T06:32:13;29.52;;;13.38;;
71558;SDS011;59382;43.852;25.952;2022-11-20T06:34:39;25.13;;;12.48;;
71558;SDS011;59382;43.852;25.952;2022-11-20T06:37:04;25.88;;;12.35;;
71558;SDS011;59382;43.852;25.952;2022-11-20T06:39:30;24.50;;;11.23;;
71558;SDS011;59382;43.852;25.952;2022-11-20T06:41:56;20.58;;;12.13;;
71558;SDS011;59382;43.852;25.952;2022-11-20T06:44:22;22.92;;;10.88;;
71558;SDS011;59382;43.852;25.952;2022-11-20T06:46:47;26.98;;;12.35;;
71558;SDS011;59382;43.852;25.952;2022-11-20T06:49:13;25.25;;;11.70;;
71558;SDS011;59382;43.852;25.952;2022-11-20T06:51:38;23.48;;;10.73;;
71558;SDS011;59382;43.852;25.952;2022-11-20T06:54:04;23.30;;;10.82;;
71558;SDS011;59382;43.852;25.952;2022-11-20T06:56:29;21.75;;;9.75;;
71558;SDS011;59382;43.852;25.952;2022-11-20T06:58:55;23.05;;;10.95;;
71558;SDS011;59382;43.852;25.952;2022-11-20T07:01:20;28.70;;;11.10;;
71558;SDS011;59382;43.852;25.952;2022-11-20T07:03:48;21.35;;;10.82;;
71558;SDS011;59382;43.852;25.952;2022-11-20T07:06:15;20.80;;;10.63;;
71558;SDS011;59382;43.852;25.952;2022-11-20T07:08:41;24.50;;;10.30;;
71558;SDS011;59382;43.852;25.952;2022-11-20T07:11:07;16.90;;;9.65;;
71558;SDS011;59382;43.852;25.952;2022-11-20T07:13:33;21.38;;;10.35;;
71558;SDS011;59382;43.852;25.952;2022-11-20T07:15:59;20.13;;;10.70;;
71558;SDS011;59382;43.852;25.952;2022-11-20T07:18:26;22.45;;;10.43;;
71558;SDS011;59382;43.852;25.952;2022-11-20T07:20:52;20.88;;;10.30;;
71558;SDS011;59382;43.852;25.952;2022-11-20T07:23:17;22.38;;;9.80;;
71558;SDS011;59382;43.852;25.952;2022-11-20T07:25:43;23.00;;;11.20;;
71558;SDS011;59382;43.852;25.952;2022-11-20T07:28:09;28.25;;;11.00;;
71558;SDS011;59382;43.852;25.952;2022-11-20T07:30:36;28.33;;;10.68;;
71558;SDS011;59382;43.852;25.952;2022-11-20T07:33:02;22.70;;;10.27;;
71558;SDS011;59382;43.852;25.952;2022-11-20T07:35:27;27.80;;;10.82;;
71558;SDS011;59382;43.852;25.952;2022-11-20T07:37:53;20.98;;;11.02;;
71558;SDS011;59382;43.852;25.952;2022-11-20T07:40:21;23.75;;;9.98;;
71558;SDS011;59382;43.852;25.952;2022-11-20T07:42:50;22.85;;;9.95;;
71558;SDS011;59382;43.852;25.952;2022-11-20T07:45:17;22.77;;;11.55;;
71558;SDS011;59382;43.852;25.952;2022-11-20T07:47:43;25.00;;;10.75;;
71558;SDS011;59382;43.852;25.952;2022-11-20T07:50:09;28.05;;;11.95;;
71558;SDS011;59382;43.852;25.952;2022-11-20T07:52:35;22.10;;;9.90;;
71558;SDS011;59382;43.852;25.952;2022-11-20T07:55:00;28.10;;;11.02;;
71558;SDS011;59382;43.852;25.952;2022-11-20T07:57:26;30.77;;;10.57;;
71558;SDS011;59382;43.852;25.952;2022-11-20T07:59:51;30.27;;;13.23;;
71558;SDS011;59382;43.852;25.952;2022-11-20T08:02:17;32.42;;;13.60;;
71558;SDS011;59382;43.852;25.952;2022-11-20T08:04:42;28.85;;;11.60;;
71558;SDS011;59382;43.852;25.952;2022-11-20T08:07:08;35.58;;;11.98;;
71558;SDS011;59382;43.852;25.952;2022-11-20T08:09:33;28.42;;;12.10;;
71558;SDS011;59382;43.852;25.952;2022-11-20T08:12:01;32.38;;;13.25;;
71558;SDS011;59382;43.852;25.952;2022-11-20T08:14:46;28.60;;;13.57;;
71558;SDS011;59382;43.852;25.952;2022-11-20T08:17:11;28.83;;;13.00;;
71558;SDS011;59382;43.852;25.952;2022-11-20T08:19:37;24.70;;;10.57;;
71558;SDS011;59382;43.852;25.952;2022-11-20T08:22:03;27.95;;;11.02;;
71558;SDS011;59382;43.852;25.952;2022-11-20T08:24:28;24.30;;;9.95;;
71558;SDS011;59382;43.852;25.952;2022-11-20T08:26:56;23.35;;;10.98;;
71558;SDS011;59382;43.852;25.952;2022-11-20T08:29:23;23.85;;;10.60;;
71558;SDS011;59382;43.852;25.952;2022-11-20T08:31:48;19.90;;;9.75;;
71558;SDS011;59382;43.852;25.952;2022-11-20T08:34:14;19.15;;;10.30;;
71558;SDS011;59382;43.852;25.952;2022-11-20T08:36:40;17.73;;;10.35;;
71558;SDS011;59382;43.852;25.952;2022-11-20T08:39:05;24.05;;;11.90;;
71558;SDS011;59382;43.852;25.952;2022-11-20T08:41:31;21.23;;;9.93;;
71558;SDS011;59382;43.852;25.952;2022-11-20T08:44:05;21.48;;;10.63;;
71558;SDS011;59382;43.852;25.952;2022-11-20T08:46:41;23.80;;;11.45;;
71558;SDS011;59382;43.852;25.952;2022-11-20T08:49:11;27.52;;;12.15;;
71558;SDS011;59382;43.852;25.952;2022-11-20T08:51:39;20.38;;;10.73;;
71558;SDS011;59382;43.852;25.952;2022-11-20T08:54:05;19.90;;;9.45;;
71558;SDS011;59382;43.852;25.952;2022-11-20T08:56:32;21.42;;;11.32;;
71558;SDS011;59382;43.852;25.952;2022-11-20T08:58:58;21.23;;;10.07;;
71558;SDS011;59382;43.852;25.952;2022-11-20T09:01:26;22.33;;;12.07;;
71558;SDS011;59382;43.852;25.952;2022-11-20T09:03:54;24.63;;;12.88;;
71558;SDS011;59382;43.852;25.952;2022-11-20T09:06:21;19.85;;;11.32;;
71558;SDS011;59382;43.852;25.952;2022-11-20T09:08:53;23.48;;;11.90;;
71558;SDS011;59382;43.852;25.952;2022-11-20T09:11:19;24.35;;;10.98;;
71558;SDS011;59382;43.852;25.952;2022-11-20T09:13:45;19.70;;;11.00;;
71558;SDS011;59382;43.852;25.952;2022-11-20T09:16:10;22.25;;;10.80;;
71558;SDS011;59382;43.852;25.952;2022-11-20T09:18:36;17.98;;;9.80;;
71558;SDS011;59382;43.852;25.952;2022-11-20T09:21:08;16.10;;;9.18;;
71558;SDS011;59382;43.852;25.952;2022-11-20T09:23:35;23.02;;;11.18;;
71558;SDS011;59382;43.852;25.952;2022-11-20T09:26:05;21.17;;;11.13;;
71558;SDS011;59382;43.852;25.952;2022-11-20T09:28:33;17.50;;;10.30;;
71558;SDS011;59382;43.852;25.952;2022-11-20T09:30:59;26.05;;;11.43;;
71558;SDS011;59382;43.852;25.952;2022-11-20T09:33:25;27.63;;;11.10;;
71558;SDS011;59382;43.852;25.952;2022-11-20T09:35:51;26.23;;;11.32;;
71558;SDS011;59382;43.852;25.952;2022-11-20T09:38:17;23.20;;;11.40;;
71558;SDS011;59382;43.852;25.952;2022-11-20T09:40:46;21.92;;;11.55;;
71558;SDS011;59382;43.852;25.952;2022-11-20T09:46:20;23.10;;;11.65;;
71558;SDS011;59382;43.852;25.952;2022-11-20T09:51:47;23.98;;;11.80;;
71558;SDS011;59382;43.852;25.952;2022-11-20T09:54:37;24.08;;;11.25;;
71558;SDS011;59382;43.852;25.952;2022-11-20T09:57:09;25.85;;;11.98;;
71558;SDS011;59382;43.852;25.952;2022-11-20T09:59:43;26.38;;;12.73;;
71558;SDS011;59382;43.852;25.952;2022-11-20T10:02:16;26.48;;;12.13;;
71558;SDS011;59382;43.852;25.952;2022-11-20T10:04:52;21.30;;;11.43;;
71558;SDS011;59382;43.852;25.952;2022-11-20T10:07:23;20.30;;;11.00;;
71558;SDS011;59382;43.852;25.952;2022-11-20T10:09:55;25.85;;;12.27;;
71558;SDS011;59382;43.852;25.952;2022-11-20T10:15:14;25.45;;;11.95;;
71558;SDS011;59382;43.852;25.952;2022-11-20T10:18:18;23.10;;;11.48;;
71558;SDS011;59382;43.852;25.952;2022-11-20T10:23:29;22.77;;;12.60;;
71558;SDS011;59382;43.852;25.952;2022-11-20T10:29:17;19.88;;;11.40;;
71558;SDS011;59382;43.852;25.952;2022-11-20T10:31:44;18.90;;;10.50;;
71558;SDS011;59382;43.852;25.952;2022-11-20T10:36:49;19.05;;;10.52;;
71558;SDS011;59382;43.852;25.952;2022-11-20T10:41:50;25.23;;;11.02;;
71558;SDS011;59382;43.852;25.952;2022-11-20T10:44:19;30.13;;;12.75;;
71558;SDS011;59382;43.852;25.952;2022-11-20T10:47:12;18.63;;;10.75;;
71558;SDS011;59382;43.852;25.952;2022-11-20T10:49:40;21.73;;;11.98;;
71558;SDS011;59382;43.852;25.952;2022-11-20T10:58:01;30.15;;;12.63;;
71558;SDS011;59382;43.852;25.952;2022-11-20T11:00:35;31.23;;;14.18;;
71558;SDS011;59382;43.852;25.952;2022-11-20T11:03:00;23.90;;;12.27;;
71558;SDS011;59382;43.852;25.952;2022-11-20T11:05:39;31.98;;;14.05;;
71558;SDS011;59382;43.852;25.952;2022-11-20T11:08:12;25.42;;;12.57;;
71558;SDS011;59382;43.852;25.952;2022-11-20T11:10:47;30.33;;;13.88;;
71558;SDS011;59382;43.852;25.952;2022-11-20T11:13:22;24.95;;;12.88;;
71558;SDS011;59382;43.852;25.952;2022-11-20T11:15:49;36.72;;;14.30;;
71558;SDS011;59382;43.852;25.952;2022-11-20T11:18:25;25.63;;;13.38;;
71558;SDS011;59382;43.852;25.952;2022-11-20T11:20:52;32.38;;;14.07;;
71558;SDS011;59382;43.852;25.952;2022-11-20T11:26:17;27.63;;;13.82;;
71558;SDS011;59382;43.852;25.952;2022-11-20T11:28:55;26.80;;;13.90;;
71558;SDS011;59382;43.852;25.952;2022-11-20T11:31:32;34.90;;;15.90;;
71558;SDS011;59382;43.852;25.952;2022-11-20T11:34:03;34.08;;;15.45;;
71558;SDS011;59382;43.852;25.952;2022-11-20T11:36:42;33.47;;;14.88;;
71558;SDS011;59382;43.852;25.952;2022-11-20T11:39:18;24.05;;;13.55;;
71558;SDS011;59382;43.852;25.952;2022-11-20T11:41:46;28.13;;;14.23;;
71558;SDS011;59382;43.852;25.952;2022-11-20T11:47:04;30.63;;;14.35;;
71558;SDS011;59382;43.852;25.952;2022-11-20T11:49:33;25.95;;;14.57;;
71558;SDS011;59382;43.852;25.952;2022-11-20T11:52:09;36.20;;;16.02;;
71558;SDS011;59382;43.852;25.952;2022-11-20T12:05:36;36.42;;;17.85;;
71558;SDS011;59382;43.852;25.952;2022-11-20T12:11:12;33.83;;;17.25;;
71558;SDS011;59382;43.852;25.952;2022-11-20T12:16:14;29.98;;;16.80;;
71558;SDS011;59382;43.852;25.952;2022-11-20T12:18:42;40.47;;;17.95;;
71558;SDS011;59382;43.852;25.952;2022-11-20T12:32:46;47.08;;;21.58;;
71558;SDS011;59382;43.852;25.952;2022-11-20T12:36:02;32.75;;;17.17;;
71558;SDS011;59382;43.852;25.952;2022-11-20T12:53:20;31.23;;;16.75;;
71558;SDS011;59382;43.852;25.952;2022-11-20T12:56:03;31.85;;;16.40;;
71558;SDS011;59382;43.852;25.952;2022-11-20T12:59:00;38.83;;;18.75;;
71558;SDS011;59382;43.852;25.952;2022-11-20T13:01:55;36.03;;;20.02;;
71558;SDS011;59382;43.852;25.952;2022-11-20T13:07:08;33.85;;;17.20;;
71558;SDS011;59382;43.852;25.952;2022-11-20T13:09:39;36.50;;;18.60;;
71558;SDS011;59382;43.852;25.952;2022-11-20T13:17:31;30.95;;;15.30;;
71558;SDS011;59382;43.852;25.952;2022-11-20T13:22:29;31.83;;;14.02;;
71558;SDS011;59382;43.852;25.952;2022-11-20T13:25:21;27.80;;;15.10;;
71558;SDS011;59382;43.852;25.952;2022-11-20T13:27:50;31.25;;;16.65;;
71558;SDS011;59382;43.852;25.952;2022-11-20T13:30:17;29.98;;;15.77;;
71558;SDS011;59382;43.852;25.952;2022-11-20T13:32:50;32.50;;;17.20;;
71558;SDS011;59382;43.852;25.952;2022-11-20T13:35:27;32.05;;;16.42;;
71558;SDS011;59382;43.852;25.952;2022-11-20T13:38:05;26.80;;;15.82;;
71558;SDS011;59382;43.852;25.952;2022-11-20T13:40:38;32.72;;;15.85;;
71558;SDS011;59382;43.852;25.952;2022-11-20T13:43:44;26.33;;;14.50;;
71558;SDS011;59382;43.852;25.952;2022-11-20T13:46:14;27.83;;;14.65;;
71558;SDS011;59382;43.852;25.952;2022-11-20T13:48:44;25.95;;;14.68;;
71558;SDS011;59382;43.852;25.952;2022-11-20T14:02:05;22.73;;;13.25;;
71558;SDS011;59382;43.852;25.952;2022-11-20T14:04:38;25.60;;;15.43;;
71558;SDS011;59382;43.852;25.952;2022-11-20T14:07:10;27.02;;;13.07;;
71558;SDS011;59382;43.852;25.952;2022-11-20T14:09:48;28.13;;;13.45;;
71558;SDS011;59382;43.852;25.952;2022-11-20T14:12:16;22.05;;;13.07;;
71558;SDS011;59382;43.852;25.952;2022-11-20T14:14:49;24.35;;;13.43;;
71558;SDS011;59382;43.852;25.952;2022-11-20T14:19:54;25.55;;;15.48;;
71558;SDS011;59382;43.852;25.952;2022-11-20T14:22:29;23.73;;;14.10;;
71558;SDS011;59382;43.852;25.952;2022-11-20T14:27:47;26.83;;;14.10;;
71558;SDS011;59382;43.852;25.952;2022-11-20T14:30:21;25.55;;;13.93;;
71558;SDS011;59382;43.852;25.952;2022-11-20T14:32:49;21.83;;;13.10;;
71558;SDS011;59382;43.852;25.952;2022-11-20T14:35:25;21.67;;;12.98;;
71558;SDS011;59382;43.852;25.952;2022-11-20T14:37:53;19.35;;;10.57;;
71558;SDS011;59382;43.852;25.952;2022-11-20T14:42:50;20.20;;;11.85;;
71558;SDS011;59382;43.852;25.952;2022-11-20T14:45:15;19.77;;;12.15;;
71558;SDS011;59382;43.852;25.952;2022-11-20T14:47:44;27.80;;;13.85;;
71558;SDS011;59382;43.852;25.952;2022-11-20T14:50:16;23.98;;;14.25;;
71558;SDS011;59382;43.852;25.952;2022-11-20T14:52:58;27.52;;;14.27;;
71558;SDS011;59382;43.852;25.952;2022-11-20T14:55:30;28.73;;;14.38;;
71558;SDS011;59382;43.852;25.952;2022-11-20T14:57:59;20.17;;;13.27;;
71558;SDS011;59382;43.852;25.952;2022-11-20T15:00:27;24.45;;;13.57;;
71558;SDS011;59382;43.852;25.952;2022-11-20T15:02:59;24.00;;;14.73;;
71558;SDS011;59382;43.852;25.952;2022-11-20T15:05:25;25.17;;;14.30;;
71558;SDS011;59382;43.852;25.952;2022-11-20T15:08:10;18.02;;;12.07;;
71558;SDS011;59382;43.852;25.952;2022-11-20T15:10:37;20.33;;;13.35;;
71558;SDS011;59382;43.852;25.952;2022-11-20T15:13:10;20.67;;;12.65;;
71558;SDS011;59382;43.852;25.952;2022-11-20T15:15:45;24.02;;;14.05;;
71558;SDS011;59382;43.852;25.952;2022-11-20T15:18:21;20.75;;;12.95;;
71558;SDS011;59382;43.852;25.952;2022-11-20T15:20:49;18.02;;;12.05;;
71558;SDS011;59382;43.852;25.952;2022-11-20T15:23:17;25.50;;;14.65;;
71558;SDS011;59382;43.852;25.952;2022-11-20T15:25:43;20.83;;;13.20;;
71558;SDS011;59382;43.852;25.952;2022-11-20T15:28:27;34.20;;;18.80;;
71558;SDS011;59382;43.852;25.952;2022-11-20T15:30:56;25.17;;;14.63;;
71558;SDS011;59382;43.852;25.952;2022-11-20T15:33:22;20.33;;;12.52;;
71558;SDS011;59382;43.852;25.952;2022-11-20T15:35:47;21.80;;;13.02;;
71558;SDS011;59382;43.852;25.952;2022-11-20T15:38:13;19.40;;;12.23;;
71558;SDS011;59382;43.852;25.952;2022-11-20T15:40:39;17.27;;;11.65;;
71558;SDS011;59382;43.852;25.952;2022-11-20T15:43:04;16.20;;;10.98;;
71558;SDS011;59382;43.852;25.952;2022-11-20T15:45:45;18.20;;;11.32;;
71558;SDS011;59382;43.852;25.952;2022-11-20T15:48:24;17.17;;;10.25;;
71558;SDS011;59382;43.852;25.952;2022-11-20T15:50:57;17.65;;;10.30;;
71558;SDS011;59382;43.852;25.952;2022-11-20T15:53:27;29.17;;;13.60;;
71558;SDS011;59382;43.852;25.952;2022-11-20T15:55:52;21.27;;;12.98;;
71558;SDS011;59382;43.852;25.952;2022-11-20T15:58:18;23.42;;;12.98;;
71558;SDS011;59382;43.852;25.952;2022-11-20T16:00:44;18.27;;;11.63;;
71558;SDS011;59382;43.852;25.952;2022-11-20T16:03:13;20.90;;;11.85;;
71558;SDS011;59382;43.852;25.952;2022-11-20T16:05:40;22.77;;;13.45;;
71558;SDS011;59382;43.852;25.952;2022-11-20T16:08:08;24.02;;;13.45;;
71558;SDS011;59382;43.852;25.952;2022-11-20T16:10:37;20.75;;;12.55;;